createdAt,value
2018-01-23T00:00:13.848Z,9.31
2018-01-23T00:02:42.165Z,9.33
2018-01-23T00:05:10.520Z,9.33
2018-01-23T00:07:38.844Z,9.34
2018-01-23T00:10:07.142Z,9.32
2018-01-23T00:12:36.268Z,9.29
2018-01-23T00:15:04.946Z,9.27
2018-01-23T00:17:33.315Z,9.26
2018-01-23T00:20:01.627Z,9.23
2018-01-23T00:22:30.097Z,9.20
2018-01-23T00:24:58.384Z,9.20
2018-01-23T00:27:26.684Z,9.19
2018-01-23T00:29:55.547Z,9.16
2018-01-23T00:32:23.859Z,9.14
2018-01-23T00:34:52.216Z,9.12
2018-01-23T00:37:20.528Z,9.10
2018-01-23T00:39:48.838Z,9.08
2018-01-23T00:42:17.149Z,9.05
2018-01-23T00:44:45.471Z,9.03
2018-01-23T00:47:14.548Z,9.01
2018-01-23T00:49:42.838Z,9.00
2018-01-23T00:52:11.140Z,8.97
2018-01-23T00:54:39.446Z,8.96
2018-01-23T00:57:07.738Z,8.96
2018-01-23T00:59:36.809Z,8.98
2018-01-23T01:02:05.339Z,8.99
2018-01-23T01:04:34.423Z,8.97
2018-01-23T01:07:03.814Z,8.98
2018-01-23T01:09:32.882Z,8.99
2018-01-23T01:12:01.198Z,8.99
2018-01-23T01:14:29.506Z,8.93
2018-01-23T01:16:58.822Z,8.89
2018-01-23T01:19:27.307Z,8.87
2018-01-23T01:21:55.626Z,8.84
2018-01-23T01:24:23.918Z,8.84
2018-01-23T01:26:52.221Z,8.87
2018-01-23T01:29:21.278Z,8.88
2018-01-23T01:31:49.633Z,8.89
2018-01-23T01:34:18.799Z,8.91
2018-01-23T01:36:47.122Z,8.91
2018-01-23T01:39:15.477Z,8.91
2018-01-23T01:41:43.888Z,8.92
2018-01-23T01:44:12.245Z,8.95
2018-01-23T01:46:41.365Z,9.00
2018-01-23T01:49:09.659Z,9.03
2018-01-23T01:51:38.026Z,9.07
2018-01-23T01:54:06.349Z,9.10
2018-01-23T01:56:35.447Z,9.10
2018-01-23T01:59:03.755Z,9.14
2018-01-23T02:01:33.064Z,9.16
2018-01-23T02:04:02.503Z,9.17
2018-01-23T02:06:30.806Z,9.19
2018-01-23T02:08:59.177Z,9.22
2018-01-23T02:11:28.204Z,9.23
2018-01-23T02:13:56.567Z,9.22
2018-01-23T02:16:24.962Z,9.22
2018-01-23T02:18:53.248Z,9.26
2018-01-23T02:21:21.598Z,9.28
2018-01-23T02:23:49.887Z,9.28
2018-01-23T02:26:18.189Z,9.27
2018-01-23T02:28:46.502Z,9.26
2018-01-23T02:31:15.715Z,9.27
2018-01-23T02:33:44.774Z,9.30
2018-01-23T02:36:13.130Z,9.28
2018-01-23T02:38:41.459Z,9.27
2018-01-23T02:41:09.760Z,9.27
2018-01-23T02:43:38.832Z,9.28
2018-01-23T02:46:07.149Z,9.30
2018-01-23T02:48:36.370Z,9.32
2018-01-23T02:51:04.680Z,9.34
2018-01-23T02:53:33.146Z,9.35
2018-01-23T02:56:01.878Z,9.36
2018-01-23T02:58:30.175Z,9.38
2018-01-23T03:00:59.360Z,9.39
2018-01-23T03:03:27.624Z,9.37
2018-01-23T03:05:56.487Z,9.37
2018-01-23T03:08:24.786Z,9.40
2018-01-23T03:10:53.133Z,9.41
2018-01-23T03:13:21.390Z,9.42
2018-01-23T03:15:49.690Z,9.44
2018-01-23T03:18:19.304Z,9.45
2018-01-23T03:20:50.550Z,9.45
2018-01-23T03:23:20.598Z,9.45
2018-01-23T03:25:48.919Z,9.43
2018-01-23T03:28:17.292Z,9.44
2018-01-23T03:30:45.582Z,9.41
2018-01-23T03:33:13.944Z,9.39
2018-01-23T03:35:42.225Z,9.34
2018-01-23T03:38:10.551Z,9.28
2018-01-23T03:40:38.863Z,9.23
2018-01-23T03:43:07.170Z,9.19
2018-01-23T03:45:35.477Z,9.14
2018-01-23T03:48:03.813Z,9.06
2018-01-23T03:50:32.092Z,9.02
2018-01-23T03:53:00.476Z,8.95
2018-01-23T03:55:28.816Z,8.92
2018-01-23T03:57:57.120Z,8.88
2018-01-23T04:00:25.446Z,8.86
2018-01-23T04:02:54.520Z,8.85
2018-01-23T04:05:22.831Z,8.83
2018-01-23T04:07:51.182Z,8.87
2018-01-23T04:10:19.477Z,8.90
2018-01-23T04:12:47.896Z,8.96
2018-01-23T04:15:16.191Z,9.03
2018-01-23T04:17:44.492Z,9.10
2018-01-23T04:20:14.785Z,9.14
2018-01-23T04:22:43.078Z,9.18
2018-01-23T04:25:11.361Z,9.21
2018-01-23T04:27:41.256Z,9.23
2018-01-23T04:30:09.576Z,9.25
2018-01-23T04:32:38.662Z,9.23
2018-01-23T04:35:07.100Z,9.22
2018-01-23T04:37:35.417Z,9.20
2018-01-23T04:40:03.724Z,9.19
2018-01-23T04:42:33.447Z,9.21
2018-01-23T04:45:01.742Z,9.22
2018-01-23T04:47:30.098Z,9.21
2018-01-23T04:49:59.225Z,9.15
2018-01-23T04:52:28.676Z,9.08
2018-01-23T04:54:57.215Z,9.02
2018-01-23T04:57:26.020Z,8.96
2018-01-23T04:59:54.306Z,8.92
2018-01-23T05:02:22.611Z,8.90
2018-01-23T05:04:51.772Z,8.89
2018-01-23T05:07:20.160Z,8.86
2018-01-23T05:09:48.452Z,8.86
2018-01-23T05:12:16.745Z,8.82
2018-01-23T05:14:45.040Z,8.79
2018-01-23T05:17:13.337Z,8.78
2018-01-23T05:19:41.630Z,8.77
2018-01-23T05:22:10.766Z,8.74
2018-01-23T05:24:39.145Z,8.71
2018-01-23T05:27:07.460Z,8.69
2018-01-23T05:29:35.743Z,8.71
2018-01-23T05:32:04.072Z,8.75
2018-01-23T05:34:34.122Z,8.80
2018-01-23T05:37:03.409Z,8.86
2018-01-23T05:39:31.826Z,8.95
2018-01-23T05:42:01.043Z,8.97
2018-01-23T05:44:29.379Z,8.98
2018-01-23T05:46:57.767Z,8.99
2018-01-23T05:49:26.086Z,9.00
2018-01-23T05:51:55.162Z,9.00
2018-01-23T05:54:23.463Z,8.96
2018-01-23T05:56:51.948Z,8.93
2018-01-23T05:59:20.253Z,8.95
2018-01-23T06:01:48.625Z,8.95
2018-01-23T06:04:18.089Z,8.97
2018-01-23T06:06:46.464Z,9.02
2018-01-23T06:09:14.767Z,9.02
2018-01-23T06:11:43.890Z,9.02
2018-01-23T06:14:12.204Z,8.95
2018-01-23T06:16:41.371Z,8.92
2018-01-23T06:19:09.748Z,8.87
2018-01-23T06:21:38.647Z,8.85
2018-01-23T06:24:06.996Z,8.86
2018-01-23T06:26:35.381Z,8.87
2018-01-23T06:29:03.690Z,8.89
2018-01-23T06:31:32.021Z,8.92
2018-01-23T06:34:02.047Z,8.93
2018-01-23T06:36:31.194Z,8.93
2018-01-23T06:38:59.547Z,8.94
2018-01-23T06:41:27.925Z,8.95
2018-01-23T06:43:57.858Z,8.96
2018-01-23T06:46:26.163Z,8.96
2018-01-23T06:48:54.460Z,8.95
2018-01-23T06:51:24.092Z,8.94
2018-01-23T06:53:53.326Z,8.93
2018-01-23T06:56:21.644Z,8.90
2018-01-23T06:58:49.951Z,8.85
2018-01-23T07:01:18.259Z,8.84
2018-01-23T07:03:46.581Z,8.84
2018-01-23T07:06:14.869Z,8.84
2018-01-23T07:08:43.171Z,8.83
2018-01-23T07:11:12.217Z,8.81
2018-01-23T07:13:40.517Z,8.83
2018-01-23T07:16:08.826Z,8.85
2018-01-23T07:18:37.119Z,8.89
2018-01-23T07:21:05.405Z,8.89
2018-01-23T07:23:34.481Z,8.91
2018-01-23T07:26:02.793Z,8.95
2018-01-23T07:28:31.864Z,9.01
2018-01-23T07:31:00.179Z,9.03
2018-01-23T07:33:29.267Z,9.06
2018-01-23T07:35:58.341Z,9.08
2018-01-23T07:38:26.645Z,9.11
2018-01-23T07:40:54.957Z,9.15
2018-01-23T07:43:23.255Z,9.20
2018-01-23T07:45:51.555Z,9.21
2018-01-23T07:48:19.883Z,9.24
2018-01-23T07:50:48.781Z,9.27
2018-01-23T07:53:17.862Z,9.28
2018-01-23T07:55:46.997Z,9.30
2018-01-23T07:58:15.365Z,9.33
2018-01-23T08:00:44.411Z,9.39
2018-01-23T08:03:12.723Z,9.44
2018-01-23T08:05:41.005Z,9.48
2018-01-23T08:08:09.406Z,9.54
2018-01-23T08:10:38.592Z,9.55
2018-01-23T08:13:07.135Z,9.53
2018-01-23T08:15:35.425Z,9.50
2018-01-23T08:18:03.711Z,9.51
2018-01-23T08:20:32.017Z,9.57
2018-01-23T08:23:00.313Z,9.62
2018-01-23T08:25:29.371Z,9.71
2018-01-23T08:27:57.703Z,9.79
2018-01-23T08:30:26.772Z,9.82
2018-01-23T08:32:55.101Z,9.87
2018-01-23T08:35:23.398Z,9.88
2018-01-23T08:37:52.062Z,9.93
2018-01-23T08:40:20.556Z,9.95
2018-01-23T08:42:48.844Z,9.95
2018-01-23T08:45:17.169Z,9.97
2018-01-23T08:47:45.474Z,9.92
2018-01-23T08:50:15.043Z,9.91
2018-01-23T08:52:44.150Z,9.93
2018-01-23T08:55:12.450Z,9.91
2018-01-23T08:57:40.755Z,9.93
2018-01-23T09:00:09.853Z,9.98
2018-01-23T09:02:38.195Z,10.01
2018-01-23T09:05:06.485Z,9.99
2018-01-23T09:07:34.789Z,10.01
2018-01-23T09:10:03.857Z,10.02
2018-01-23T09:12:32.167Z,10.01
2018-01-23T09:15:01.241Z,10.05
2018-01-23T09:17:29.527Z,10.08
2018-01-23T09:19:57.849Z,10.05
2018-01-23T09:22:26.171Z,10.04
2018-01-23T09:24:54.486Z,10.08
2018-01-23T09:27:22.801Z,10.13
2018-01-23T09:29:51.143Z,10.17
2018-01-23T09:32:19.587Z,10.23
2018-01-23T09:34:47.982Z,10.23
2018-01-23T09:37:16.287Z,10.26
2018-01-23T09:39:44.602Z,10.31
2018-01-23T09:42:12.921Z,10.32
2018-01-23T09:44:41.214Z,10.37
2018-01-23T09:47:09.520Z,10.42
2018-01-23T09:49:37.822Z,10.45
2018-01-23T09:52:06.884Z,10.50
2018-01-23T09:54:35.184Z,10.55
2018-01-23T09:57:03.612Z,10.62
2018-01-23T09:59:31.902Z,10.68
2018-01-23T10:02:00.206Z,10.69
2018-01-23T10:04:28.494Z,10.74
2018-01-23T10:06:56.908Z,10.79
2018-01-23T10:09:26.063Z,10.82
2018-01-23T10:11:54.418Z,10.86
2018-01-23T10:14:22.744Z,10.95
2018-01-23T10:16:51.035Z,11.02
2018-01-23T10:19:19.328Z,11.05
2018-01-23T10:21:47.616Z,11.01
2018-01-23T10:24:16.674Z,11.04
2018-01-23T10:26:45.059Z,11.14
2018-01-23T10:29:13.375Z,11.21
2018-01-23T10:31:41.688Z,11.31
2018-01-23T10:34:09.984Z,11.33
2018-01-23T10:36:38.272Z,11.40
2018-01-23T10:39:06.560Z,11.51
2018-01-23T10:41:34.870Z,11.54
2018-01-23T10:44:03.163Z,11.58
2018-01-23T10:46:32.219Z,11.60
2018-01-23T10:49:00.544Z,11.65
2018-01-23T10:51:29.590Z,11.61
2018-01-23T10:53:57.923Z,11.60
2018-01-23T10:56:26.986Z,11.67
2018-01-23T10:58:55.302Z,11.83
2018-01-23T11:01:30.948Z,11.95
2018-01-23T11:03:59.270Z,11.99
2018-01-23T11:06:27.594Z,11.97
2018-01-23T11:08:55.900Z,12.05
2018-01-23T11:11:24.984Z,12.13
2018-01-23T11:13:53.287Z,12.18
2018-01-23T11:16:22.436Z,12.16
2018-01-23T11:18:50.740Z,12.22
2018-01-23T11:21:19.047Z,12.29
2018-01-23T11:23:48.127Z,12.32
2018-01-23T11:26:16.458Z,12.32
2018-01-23T11:28:44.770Z,12.38
2018-01-23T11:31:13.064Z,12.46
2018-01-23T11:33:41.388Z,12.53
2018-01-23T11:36:09.692Z,12.59
2018-01-23T11:38:37.996Z,12.64
2018-01-23T11:41:06.308Z,12.65
2018-01-23T11:43:34.611Z,12.65
2018-01-23T11:46:02.961Z,12.69
2018-01-23T11:48:31.272Z,12.77
2018-01-23T11:51:00.335Z,12.86
2018-01-23T11:53:28.674Z,12.91
2018-01-23T11:55:56.990Z,12.94
2018-01-23T11:58:25.304Z,12.98
2018-01-23T12:00:54.389Z,13.01
2018-01-23T12:03:22.697Z,13.02
2018-01-23T12:05:51.770Z,13.04
2018-01-23T12:08:20.064Z,12.94
2018-01-23T12:10:49.130Z,12.82
2018-01-23T12:13:18.213Z,12.68
2018-01-23T12:15:46.525Z,12.54
2018-01-23T12:18:14.815Z,12.45
2018-01-23T12:20:43.126Z,12.36
2018-01-23T12:23:11.420Z,12.29
2018-01-23T12:25:39.709Z,12.32
2018-01-23T12:28:08.006Z,12.40
2018-01-23T12:30:36.682Z,12.41
2018-01-23T12:33:04.982Z,12.43
2018-01-23T12:35:33.344Z,12.50
2018-01-23T12:38:02.424Z,12.52
2018-01-23T12:40:30.730Z,12.46
2018-01-23T12:42:59.402Z,12.42
2018-01-23T12:45:27.718Z,12.30
2018-01-23T12:47:56.042Z,12.25
2018-01-23T12:50:25.110Z,12.10
2018-01-23T12:52:53.402Z,11.96
2018-01-23T12:55:21.691Z,11.76
2018-01-23T12:57:50.001Z,11.60
2018-01-23T13:00:18.387Z,11.52
2018-01-23T13:02:46.680Z,11.48
2018-01-23T13:05:14.993Z,11.37
2018-01-23T13:07:43.290Z,11.34
2018-01-23T13:10:11.603Z,11.26
2018-01-23T13:12:39.920Z,11.21
2018-01-23T13:15:08.254Z,11.22
2018-01-23T13:17:37.325Z,11.21
2018-01-23T13:20:05.618Z,11.12
2018-01-23T13:22:33.935Z,11.10
2018-01-23T13:25:02.241Z,11.04
2018-01-23T13:27:30.550Z,11.03
2018-01-23T13:29:58.865Z,10.96
2018-01-23T13:32:27.970Z,10.92
2018-01-23T13:34:57.412Z,10.90
2018-01-23T13:37:25.714Z,10.88
2018-01-23T13:39:54.058Z,10.84
2018-01-23T13:42:22.364Z,10.79
2018-01-23T13:44:50.656Z,10.76
2018-01-23T13:47:18.967Z,10.76
2018-01-23T13:49:47.289Z,10.71
2018-01-23T13:52:15.651Z,10.69
2018-01-23T13:54:44.699Z,10.67
2018-01-23T13:57:13.018Z,10.67
2018-01-23T13:59:41.391Z,10.66
2018-01-23T14:02:09.694Z,10.69
2018-01-23T14:04:38.828Z,10.73
2018-01-23T14:07:07.125Z,10.64
2018-01-23T14:09:35.410Z,10.63
2018-01-23T14:12:03.701Z,10.63
2018-01-23T14:14:31.991Z,10.63
2018-01-23T14:17:00.286Z,10.61
2018-01-23T14:19:28.579Z,10.56
2018-01-23T14:21:57.637Z,10.55
2018-01-23T14:24:25.932Z,10.57
2018-01-23T14:26:54.224Z,10.56
2018-01-23T14:29:22.539Z,10.55
2018-01-23T14:31:50.925Z,10.54
2018-01-23T14:34:19.216Z,10.52
2018-01-23T14:36:47.530Z,10.51
2018-01-23T14:39:15.837Z,10.53
2018-01-23T14:41:45.560Z,10.53
2018-01-23T14:44:14.721Z,10.50
2018-01-23T14:46:43.007Z,10.50
2018-01-23T14:49:11.345Z,10.50
2018-01-23T14:51:40.477Z,10.54
2018-01-23T14:54:09.555Z,10.55
2018-01-23T14:56:37.887Z,10.54
2018-01-23T14:59:06.200Z,10.54
2018-01-23T15:01:34.514Z,10.53
2018-01-23T15:04:02.848Z,10.54
2018-01-23T15:06:31.909Z,10.53
2018-01-23T15:09:00.314Z,10.49
2018-01-23T15:11:28.612Z,10.49
2018-01-23T15:13:57.671Z,10.49
2018-01-23T15:16:25.980Z,10.48
2018-01-23T15:18:54.294Z,10.48
2018-01-23T15:21:22.605Z,10.48
2018-01-23T15:23:50.916Z,10.49
2018-01-23T15:26:19.203Z,10.49
2018-01-23T15:28:47.499Z,10.50
2018-01-23T15:31:16.592Z,10.51
2018-01-23T15:33:44.881Z,10.52
2018-01-23T15:36:14.032Z,10.52
2018-01-23T15:38:42.353Z,10.52
2018-01-23T15:41:10.665Z,10.52
2018-01-23T15:43:39.064Z,10.53
2018-01-23T15:46:07.369Z,10.55
2018-01-23T15:48:35.663Z,10.57
2018-01-23T15:51:03.949Z,10.61
2018-01-23T15:53:32.277Z,10.64
2018-01-23T15:56:00.583Z,10.66
2018-01-23T15:58:28.881Z,10.70
2018-01-23T16:00:57.180Z,10.71
2018-01-23T16:03:25.481Z,10.71
2018-01-23T16:05:54.891Z,10.71
2018-01-23T16:08:24.008Z,10.73
2018-01-23T16:10:52.325Z,10.76
2018-01-23T16:13:20.656Z,10.78
2018-01-23T16:15:49.746Z,10.77
2018-01-23T16:18:18.972Z,10.80
2018-01-23T16:20:47.217Z,10.81
2018-01-23T16:23:15.619Z,10.83
2018-01-23T16:25:44.679Z,10.86
2018-01-23T16:28:13.099Z,10.89
2018-01-23T16:30:42.235Z,10.95
2018-01-23T16:33:10.607Z,10.97
2018-01-23T16:35:38.926Z,10.96
2018-01-23T16:38:07.233Z,10.98
2018-01-23T16:40:35.564Z,11.00
2018-01-23T16:43:03.885Z,11.02
2018-01-23T16:45:32.195Z,11.03
2018-01-23T16:48:01.293Z,11.02
2018-01-23T16:50:30.625Z,10.99
2018-01-23T16:52:58.975Z,10.96
2018-01-23T16:55:28.037Z,10.94
2018-01-23T16:57:57.061Z,10.92
2018-01-23T17:00:26.148Z,10.91
2018-01-23T17:02:54.478Z,10.91
2018-01-23T17:05:22.806Z,10.92
2018-01-23T17:07:51.136Z,10.96
2018-01-23T17:10:19.466Z,10.97
2018-01-23T17:12:47.785Z,10.97
2018-01-23T17:15:16.837Z,10.95
2018-01-23T17:17:45.861Z,10.93
2018-01-23T17:20:14.199Z,10.91
2018-01-23T17:22:42.510Z,10.92
2018-01-23T17:25:10.835Z,10.95
2018-01-23T17:27:39.168Z,10.97
2018-01-23T17:30:07.483Z,10.96
2018-01-23T17:32:36.580Z,10.96
2018-01-23T17:35:05.659Z,10.98
2018-01-23T17:37:34.315Z,11.00
2018-01-23T17:40:02.656Z,11.03
2018-01-23T17:42:31.735Z,11.04
2018-01-23T17:45:00.039Z,11.07
2018-01-23T17:47:29.239Z,11.07
2018-01-23T17:49:58.306Z,11.09
2018-01-23T17:52:26.685Z,11.10
2018-01-23T17:54:55.919Z,11.10
2018-01-23T17:57:25.019Z,11.09
2018-01-23T17:59:54.194Z,11.10
2018-01-23T18:02:22.551Z,11.11
2018-01-23T18:04:51.517Z,11.14
2018-01-23T18:07:19.824Z,11.14
2018-01-23T18:09:48.146Z,11.15
2018-01-23T18:12:16.508Z,11.16
2018-01-23T18:14:44.919Z,11.16
2018-01-23T18:17:14.033Z,11.17
2018-01-23T18:19:43.000Z,11.20
2018-01-23T18:22:12.111Z,11.21
2018-01-23T18:24:41.253Z,11.21
2018-01-23T18:27:09.643Z,11.23
2018-01-23T18:29:37.980Z,11.25
2018-01-23T18:32:06.309Z,11.25
2018-01-23T18:34:34.645Z,11.27
2018-01-23T18:37:02.996Z,11.31
2018-01-23T18:39:31.349Z,11.32
2018-01-23T18:41:59.669Z,11.36
2018-01-23T18:44:27.968Z,11.37
2018-01-23T18:46:56.542Z,11.39
2018-01-23T18:49:25.651Z,11.40
2018-01-23T18:51:53.983Z,11.41
2018-01-23T18:54:22.283Z,11.42
2018-01-23T18:56:50.607Z,11.44
2018-01-23T18:59:18.940Z,11.43
2018-01-23T19:01:47.317Z,11.46
2018-01-23T19:04:15.636Z,11.49
2018-01-23T19:06:43.967Z,11.49
2018-01-23T19:09:12.288Z,11.50
2018-01-23T19:11:40.600Z,11.52
2018-01-23T19:14:08.930Z,11.56
2018-01-23T19:16:37.237Z,11.59
2018-01-23T19:19:05.553Z,11.56
2018-01-23T19:21:35.698Z,11.57
2018-01-23T19:24:04.032Z,11.57
2018-01-23T19:26:32.340Z,11.57
2018-01-23T19:29:01.414Z,11.56
2018-01-23T19:31:29.804Z,11.58
2018-01-23T19:33:59.056Z,11.60
2018-01-23T19:36:27.390Z,11.59
2018-01-23T19:38:55.932Z,11.60
2018-01-23T19:41:24.264Z,11.59
2018-01-23T19:43:52.804Z,11.60
2018-01-23T19:46:23.098Z,11.59
2018-01-23T19:48:51.763Z,11.61
2018-01-23T19:51:20.388Z,11.62
2018-01-23T19:53:48.834Z,11.63
2018-01-23T19:56:17.389Z,11.65
2018-01-23T19:58:46.062Z,11.67
2018-01-23T20:01:14.691Z,11.68
2018-01-23T20:03:43.838Z,11.67
2018-01-23T20:06:12.167Z,11.70
2018-01-23T20:08:41.240Z,11.72
2018-01-23T20:11:09.540Z,11.72
2018-01-23T20:13:37.868Z,11.75
2018-01-23T20:16:06.961Z,11.77
2018-01-23T20:18:36.316Z,11.79
2018-01-23T20:21:04.988Z,11.80
2018-01-23T20:23:33.606Z,11.80
2018-01-23T20:26:02.738Z,11.80
2018-01-23T20:28:31.364Z,11.80
2018-01-23T20:30:59.973Z,11.81
2018-01-23T20:33:28.306Z,11.81
2018-01-23T20:35:57.412Z,11.83
2018-01-23T20:38:26.495Z,11.84
2018-01-23T20:40:54.816Z,11.83
2018-01-23T20:43:23.141Z,11.84
2018-01-23T20:45:51.446Z,11.87
2018-01-23T20:48:20.106Z,11.90
2018-01-23T20:50:48.402Z,11.93
2018-01-23T20:53:16.706Z,11.95
2018-01-23T20:55:46.542Z,11.96
2018-01-23T20:58:14.845Z,11.99
2018-01-23T21:00:43.160Z,12.02
2018-01-23T21:03:11.492Z,12.03
2018-01-23T21:05:39.844Z,12.01
2018-01-23T21:08:08.154Z,11.99
2018-01-23T21:10:36.490Z,11.99
2018-01-23T21:13:05.312Z,11.97
2018-01-23T21:15:35.321Z,11.97
2018-01-23T21:18:04.385Z,11.96
2018-01-23T21:20:32.688Z,11.94
2018-01-23T21:23:00.991Z,11.93
2018-01-23T21:25:30.074Z,11.93
2018-01-23T21:27:58.400Z,11.92
2018-01-23T21:30:26.983Z,11.93
2018-01-23T21:32:55.308Z,11.93
2018-01-23T21:35:23.618Z,11.94
2018-01-23T21:37:52.718Z,11.94
2018-01-23T21:40:21.819Z,11.96
2018-01-23T21:42:50.919Z,11.99
2018-01-23T21:45:19.280Z,12.02
2018-01-23T21:47:48.412Z,12.03
2018-01-23T21:50:17.490Z,12.04
2018-01-23T21:52:45.790Z,12.05
2018-01-23T21:55:14.968Z,12.06
2018-01-23T21:57:43.268Z,12.05
2018-01-23T22:00:12.444Z,12.06
2018-01-23T22:02:40.763Z,12.07
2018-01-23T22:05:09.156Z,12.08
2018-01-23T22:07:37.460Z,12.08
2018-01-23T22:10:05.754Z,12.08
2018-01-23T22:12:34.410Z,12.08
2018-01-23T22:15:02.722Z,12.07
2018-01-23T22:17:31.034Z,12.05
2018-01-23T22:19:59.350Z,12.06
2018-01-23T22:22:27.660Z,12.08
2018-01-23T22:24:55.980Z,12.09
2018-01-23T22:27:24.292Z,12.11
2018-01-23T22:29:52.610Z,12.15
2018-01-23T22:32:21.269Z,12.19
2018-01-23T22:34:49.570Z,12.21
2018-01-23T22:37:18.016Z,12.24
2018-01-23T22:39:47.140Z,12.26
2018-01-23T22:42:15.481Z,12.30
2018-01-23T22:44:43.864Z,12.31
2018-01-23T22:47:12.168Z,12.33
2018-01-23T22:49:41.228Z,12.34
2018-01-23T22:52:09.625Z,12.37
2018-01-23T22:54:37.966Z,12.37
2018-01-23T22:57:06.274Z,12.38
2018-01-23T22:59:34.633Z,12.41
2018-01-23T23:02:02.932Z,12.44
2018-01-23T23:04:31.260Z,12.47
2018-01-23T23:07:00.326Z,12.48
2018-01-23T23:09:28.627Z,12.50
2018-01-23T23:11:58.551Z,12.52
2018-01-23T23:14:28.441Z,12.55
2018-01-23T23:16:56.876Z,12.58
2018-01-23T23:19:25.197Z,12.60
2018-01-23T23:21:53.500Z,12.61
2018-01-23T23:24:21.805Z,12.63
2018-01-23T23:26:50.874Z,12.65
2018-01-23T23:29:19.187Z,12.66
2018-01-23T23:31:47.584Z,12.66
2018-01-23T23:34:15.898Z,12.68
2018-01-23T23:36:44.232Z,12.69
2018-01-23T23:39:13.297Z,12.72
2018-01-23T23:41:41.602Z,12.74
2018-01-23T23:44:11.505Z,12.76
2018-01-23T23:46:40.749Z,12.78
2018-01-23T23:49:09.135Z,12.80
2018-01-23T23:51:37.451Z,12.83
2018-01-23T23:54:05.787Z,12.82
2018-01-23T23:56:34.082Z,12.84
2018-01-23T23:59:02.407Z,12.83
